sensor_id;sensor_type;location;lat;lon;timestamp;P1;durP1;ratioP1;P2;durP2;ratioP2
82850;SDS011;72609;45.768;4.884;2024-03-08T00:03:07;4.80;;;1.98;;
82850;SDS011;72609;45.768;4.884;2024-03-08T00:05:35;4.38;;;1.90;;
82850;SDS011;72609;45.768;4.884;2024-03-08T00:08:01;5.25;;;1.70;;
82850;SDS011;72609;45.768;4.884;2024-03-08T00:10:26;5.78;;;2.33;;
82850;SDS011;72609;45.768;4.884;2024-03-08T00:12:53;2.60;;;1.52;;
82850;SDS011;72609;45.768;4.884;2024-03-08T00:15:19;4.47;;;1.80;;
82850;SDS011;72609;45.768;4.884;2024-03-08T00:17:48;3.28;;;1.70;;
82850;SDS011;72609;45.768;4.884;2024-03-08T00:20:14;3.13;;;1.48;;
82850;SDS011;72609;45.768;4.884;2024-03-08T00:22:40;3.47;;;1.20;;
82850;SDS011;72609;45.768;4.884;2024-03-08T00:25:06;5.57;;;1.40;;
82850;SDS011;72609;45.768;4.884;2024-03-08T00:27:35;2.30;;;1.30;;
82850;SDS011;72609;45.768;4.884;2024-03-08T00:30:01;5.60;;;2.20;;
82850;SDS011;72609;45.768;4.884;2024-03-08T00:32:27;4.72;;;2.25;;
82850;SDS011;72609;45.768;4.884;2024-03-08T00:34:53;2.03;;;1.77;;
82850;SDS011;72609;45.768;4.884;2024-03-08T00:37:22;5.50;;;2.05;;
82850;SDS011;72609;45.768;4.884;2024-03-08T00:39:48;3.28;;;1.35;;
82850;SDS011;72609;45.768;4.884;2024-03-08T00:42:15;4.93;;;1.83;;
82850;SDS011;72609;45.768;4.884;2024-03-08T00:44:43;6.15;;;2.40;;
82850;SDS011;72609;45.768;4.884;2024-03-08T00:47:09;4.03;;;1.98;;
82850;SDS011;72609;45.768;4.884;2024-03-08T00:49:35;6.13;;;2.20;;
82850;SDS011;72609;45.768;4.884;2024-03-08T00:52:03;5.95;;;2.92;;
82850;SDS011;72609;45.768;4.884;2024-03-08T00:54:32;11.63;;;3.15;;
82850;SDS011;72609;45.768;4.884;2024-03-08T00:56:58;3.65;;;2.00;;
82850;SDS011;72609;45.768;4.884;2024-03-08T00:59:24;8.25;;;2.83;;
82850;SDS011;72609;45.768;4.884;2024-03-08T01:01:50;12.15;;;2.95;;
82850;SDS011;72609;45.768;4.884;2024-03-08T01:04:15;6.50;;;2.42;;
82850;SDS011;72609;45.768;4.884;2024-03-08T01:06:41;5.85;;;2.90;;
82850;SDS011;72609;45.768;4.884;2024-03-08T01:09:10;3.38;;;2.22;;
82850;SDS011;72609;45.768;4.884;2024-03-08T01:11:36;4.38;;;2.22;;
82850;SDS011;72609;45.768;4.884;2024-03-08T01:14:03;6.55;;;3.40;;
82850;SDS011;72609;45.768;4.884;2024-03-08T01:16:28;7.47;;;2.50;;
82850;SDS011;72609;45.768;4.884;2024-03-08T01:18:54;6.25;;;2.65;;
82850;SDS011;72609;45.768;4.884;2024-03-08T01:21:20;3.33;;;2.47;;
82850;SDS011;72609;45.768;4.884;2024-03-08T01:23:45;4.35;;;2.63;;
82850;SDS011;72609;45.768;4.884;2024-03-08T01:26:11;6.65;;;3.65;;
82850;SDS011;72609;45.768;4.884;2024-03-08T01:28:37;6.88;;;3.60;;
82850;SDS011;72609;45.768;4.884;2024-03-08T01:31:03;4.93;;;2.83;;
82850;SDS011;72609;45.768;4.884;2024-03-08T01:33:29;4.38;;;2.03;;
82850;SDS011;72609;45.768;4.884;2024-03-08T01:35:56;3.85;;;2.42;;
82850;SDS011;72609;45.768;4.884;2024-03-08T01:43:17;7.15;;;3.40;;
82850;SDS011;72609;45.768;4.884;2024-03-08T01:45:47;7.13;;;3.25;;
82850;SDS011;72609;45.768;4.884;2024-03-08T01:48:13;7.30;;;3.85;;
82850;SDS011;72609;45.768;4.884;2024-03-08T01:50:40;4.13;;;2.78;;
82850;SDS011;72609;45.768;4.884;2024-03-08T01:53:06;7.50;;;3.03;;
82850;SDS011;72609;45.768;4.884;2024-03-08T01:55:35;7.93;;;3.67;;
82850;SDS011;72609;45.768;4.884;2024-03-08T01:58:01;9.63;;;3.03;;
82850;SDS011;72609;45.768;4.884;2024-03-08T02:00:31;5.13;;;3.25;;
82850;SDS011;72609;45.768;4.884;2024-03-08T02:02:59;13.05;;;3.60;;
82850;SDS011;72609;45.768;4.884;2024-03-08T02:05:26;12.75;;;3.03;;
82850;SDS011;72609;45.768;4.884;2024-03-08T02:07:52;14.60;;;3.92;;
82850;SDS011;72609;45.768;4.884;2024-03-08T02:10:18;7.53;;;3.00;;
82850;SDS011;72609;45.768;4.884;2024-03-08T02:12:44;3.67;;;2.63;;
82850;SDS011;72609;45.768;4.884;2024-03-08T02:15:11;4.97;;;2.67;;
82850;SDS011;72609;45.768;4.884;2024-03-08T02:17:37;4.93;;;2.88;;
82850;SDS011;72609;45.768;4.884;2024-03-08T02:20:03;4.82;;;2.47;;
82850;SDS011;72609;45.768;4.884;2024-03-08T02:22:30;8.40;;;3.28;;
82850;SDS011;72609;45.768;4.884;2024-03-08T02:24:57;8.73;;;3.42;;
82850;SDS011;72609;45.768;4.884;2024-03-08T02:27:26;5.88;;;3.70;;
82850;SDS011;72609;45.768;4.884;2024-03-08T02:29:53;6.88;;;2.75;;
82850;SDS011;72609;45.768;4.884;2024-03-08T02:32:23;11.00;;;2.22;;
82850;SDS011;72609;45.768;4.884;2024-03-08T02:34:49;7.70;;;2.70;;
82850;SDS011;72609;45.768;4.884;2024-03-08T02:37:15;6.65;;;2.53;;
82850;SDS011;72609;45.768;4.884;2024-03-08T02:39:41;6.22;;;1.92;;
82850;SDS011;72609;45.768;4.884;2024-03-08T02:42:07;10.60;;;2.20;;
82850;SDS011;72609;45.768;4.884;2024-03-08T02:44:32;7.13;;;2.85;;
82850;SDS011;72609;45.768;4.884;2024-03-08T02:47:01;3.78;;;2.28;;
82850;SDS011;72609;45.768;4.884;2024-03-08T02:49:26;4.20;;;2.25;;
82850;SDS011;72609;45.768;4.884;2024-03-08T02:51:52;6.05;;;2.72;;
82850;SDS011;72609;45.768;4.884;2024-03-08T02:54:18;3.13;;;2.17;;
82850;SDS011;72609;45.768;4.884;2024-03-08T02:56:45;5.50;;;2.53;;
82850;SDS011;72609;45.768;4.884;2024-03-08T02:59:17;7.22;;;2.47;;
82850;SDS011;72609;45.768;4.884;2024-03-08T03:01:44;5.00;;;2.60;;
82850;SDS011;72609;45.768;4.884;2024-03-08T03:04:09;6.28;;;2.75;;
82850;SDS011;72609;45.768;4.884;2024-03-08T03:06:35;10.88;;;4.35;;
82850;SDS011;72609;45.768;4.884;2024-03-08T03:09:01;8.68;;;3.22;;
82850;SDS011;72609;45.768;4.884;2024-03-08T03:11:27;5.07;;;3.30;;
82850;SDS011;72609;45.768;4.884;2024-03-08T03:13:53;5.82;;;3.88;;
82850;SDS011;72609;45.768;4.884;2024-03-08T03:16:19;10.60;;;4.25;;
82850;SDS011;72609;45.768;4.884;2024-03-08T03:18:45;6.47;;;3.30;;
82850;SDS011;72609;45.768;4.884;2024-03-08T03:21:12;10.52;;;3.40;;
82850;SDS011;72609;45.768;4.884;2024-03-08T03:23:38;6.57;;;3.15;;
82850;SDS011;72609;45.768;4.884;2024-03-08T03:26:10;7.70;;;3.00;;
82850;SDS011;72609;45.768;4.884;2024-03-08T03:28:37;8.40;;;4.63;;
82850;SDS011;72609;45.768;4.884;2024-03-08T03:31:05;8.65;;;4.55;;
82850;SDS011;72609;45.768;4.884;2024-03-08T03:33:39;8.30;;;3.50;;
82850;SDS011;72609;45.768;4.884;2024-03-08T03:36:05;8.55;;;4.13;;
82850;SDS011;72609;45.768;4.884;2024-03-08T03:38:30;6.50;;;3.72;;
82850;SDS011;72609;45.768;4.884;2024-03-08T03:40:56;5.88;;;3.90;;
82850;SDS011;72609;45.768;4.884;2024-03-08T03:43:29;6.55;;;3.03;;
82850;SDS011;72609;45.768;4.884;2024-03-08T03:45:54;7.55;;;3.55;;
82850;SDS011;72609;45.768;4.884;2024-03-08T03:48:20;6.13;;;3.13;;
82850;SDS011;72609;45.768;4.884;2024-03-08T03:50:46;9.27;;;3.67;;
82850;SDS011;72609;45.768;4.884;2024-03-08T03:53:12;6.07;;;4.18;;
82850;SDS011;72609;45.768;4.884;2024-03-08T03:55:38;5.70;;;3.50;;
82850;SDS011;72609;45.768;4.884;2024-03-08T03:58:04;9.05;;;2.75;;
82850;SDS011;72609;45.768;4.884;2024-03-08T04:00:29;4.38;;;2.35;;
82850;SDS011;72609;45.768;4.884;2024-03-08T04:02:55;6.93;;;3.30;;
82850;SDS011;72609;45.768;4.884;2024-03-08T04:05:24;5.20;;;2.53;;
82850;SDS011;72609;45.768;4.884;2024-03-08T04:07:50;3.67;;;1.80;;
82850;SDS011;72609;45.768;4.884;2024-03-08T04:10:15;7.47;;;2.47;;
82850;SDS011;72609;45.768;4.884;2024-03-08T04:12:41;6.47;;;3.40;;
82850;SDS011;72609;45.768;4.884;2024-03-08T04:15:07;5.03;;;3.03;;
82850;SDS011;72609;45.768;4.884;2024-03-08T04:17:33;6.75;;;3.40;;
82850;SDS011;72609;45.768;4.884;2024-03-08T04:20:02;4.25;;;2.83;;
82850;SDS011;72609;45.768;4.884;2024-03-08T04:22:34;11.20;;;4.60;;
82850;SDS011;72609;45.768;4.884;2024-03-08T04:25:04;7.43;;;3.10;;
82850;SDS011;72609;45.768;4.884;2024-03-08T04:27:31;4.65;;;2.72;;
82850;SDS011;72609;45.768;4.884;2024-03-08T04:29:57;7.60;;;2.90;;
82850;SDS011;72609;45.768;4.884;2024-03-08T04:32:24;10.77;;;4.25;;
82850;SDS011;72609;45.768;4.884;2024-03-08T04:34:50;9.68;;;3.42;;
82850;SDS011;72609;45.768;4.884;2024-03-08T04:37:16;5.63;;;3.15;;
82850;SDS011;72609;45.768;4.884;2024-03-08T04:39:48;4.60;;;3.47;;
82850;SDS011;72609;45.768;4.884;2024-03-08T04:42:14;4.55;;;3.03;;
82850;SDS011;72609;45.768;4.884;2024-03-08T04:44:43;4.05;;;2.95;;
82850;SDS011;72609;45.768;4.884;2024-03-08T04:47:09;5.10;;;3.72;;
82850;SDS011;72609;45.768;4.884;2024-03-08T04:49:36;4.03;;;3.40;;
82850;SDS011;72609;45.768;4.884;2024-03-08T04:52:04;8.18;;;4.35;;
82850;SDS011;72609;45.768;4.884;2024-03-08T04:54:31;4.30;;;3.17;;
82850;SDS011;72609;45.768;4.884;2024-03-08T04:56:58;6.15;;;3.38;;
82850;SDS011;72609;45.768;4.884;2024-03-08T04:59:27;9.13;;;4.70;;
82850;SDS011;72609;45.768;4.884;2024-03-08T05:01:53;5.05;;;3.85;;
82850;SDS011;72609;45.768;4.884;2024-03-08T05:04:19;7.28;;;4.82;;
82850;SDS011;72609;45.768;4.884;2024-03-08T05:06:45;7.72;;;4.28;;
82850;SDS011;72609;45.768;4.884;2024-03-08T05:09:11;8.50;;;4.03;;
82850;SDS011;72609;45.768;4.884;2024-03-08T05:11:41;7.22;;;4.78;;
82850;SDS011;72609;45.768;4.884;2024-03-08T05:14:08;5.22;;;3.80;;
82850;SDS011;72609;45.768;4.884;2024-03-08T05:16:34;6.75;;;4.80;;
82850;SDS011;72609;45.768;4.884;2024-03-08T05:19:00;9.95;;;4.00;;
82850;SDS011;72609;45.768;4.884;2024-03-08T05:21:26;7.07;;;4.90;;
82850;SDS011;72609;45.768;4.884;2024-03-08T05:23:53;6.65;;;4.35;;
82850;SDS011;72609;45.768;4.884;2024-03-08T05:26:20;6.55;;;4.60;;
82850;SDS011;72609;45.768;4.884;2024-03-08T05:28:47;7.97;;;4.95;;
82850;SDS011;72609;45.768;4.884;2024-03-08T05:31:20;8.45;;;4.53;;
82850;SDS011;72609;45.768;4.884;2024-03-08T05:33:49;6.68;;;4.05;;
82850;SDS011;72609;45.768;4.884;2024-03-08T05:36:15;9.60;;;4.60;;
82850;SDS011;72609;45.768;4.884;2024-03-08T05:38:43;6.93;;;4.57;;
82850;SDS011;72609;45.768;4.884;2024-03-08T05:41:09;7.05;;;4.20;;
82850;SDS011;72609;45.768;4.884;2024-03-08T05:43:36;9.43;;;6.25;;
82850;SDS011;72609;45.768;4.884;2024-03-08T05:46:02;9.00;;;4.45;;
82850;SDS011;72609;45.768;4.884;2024-03-08T05:48:29;10.80;;;4.30;;
82850;SDS011;72609;45.768;4.884;2024-03-08T05:50:57;12.40;;;5.57;;
82850;SDS011;72609;45.768;4.884;2024-03-08T05:53:23;10.82;;;5.38;;
82850;SDS011;72609;45.768;4.884;2024-03-08T05:55:48;10.85;;;6.10;;
82850;SDS011;72609;45.768;4.884;2024-03-08T05:58:14;10.30;;;5.25;;
82850;SDS011;72609;45.768;4.884;2024-03-08T06:00:40;12.23;;;5.72;;
82850;SDS011;72609;45.768;4.884;2024-03-08T06:03:06;9.15;;;5.15;;
82850;SDS011;72609;45.768;4.884;2024-03-08T06:05:32;8.68;;;5.68;;
82850;SDS011;72609;45.768;4.884;2024-03-08T06:07:58;8.38;;;5.53;;
82850;SDS011;72609;45.768;4.884;2024-03-08T06:10:24;9.35;;;5.22;;
82850;SDS011;72609;45.768;4.884;2024-03-08T06:12:49;8.23;;;5.80;;
82850;SDS011;72609;45.768;4.884;2024-03-08T06:15:16;9.13;;;5.57;;
82850;SDS011;72609;45.768;4.884;2024-03-08T06:17:42;10.40;;;5.80;;
82850;SDS011;72609;45.768;4.884;2024-03-08T06:20:08;11.73;;;5.70;;
82850;SDS011;72609;45.768;4.884;2024-03-08T06:22:38;10.43;;;5.88;;
82850;SDS011;72609;45.768;4.884;2024-03-08T06:25:07;9.60;;;5.78;;
82850;SDS011;72609;45.768;4.884;2024-03-08T06:27:39;14.80;;;5.63;;
82850;SDS011;72609;45.768;4.884;2024-03-08T06:30:05;10.95;;;6.45;;
82850;SDS011;72609;45.768;4.884;2024-03-08T06:32:31;11.93;;;5.75;;
82850;SDS011;72609;45.768;4.884;2024-03-08T06:35:00;8.18;;;5.05;;
82850;SDS011;72609;45.768;4.884;2024-03-08T06:37:26;11.02;;;5.45;;
82850;SDS011;72609;45.768;4.884;2024-03-08T06:39:52;9.95;;;6.25;;
82850;SDS011;72609;45.768;4.884;2024-03-08T06:42:20;9.32;;;4.65;;
82850;SDS011;72609;45.768;4.884;2024-03-08T06:44:45;10.00;;;6.05;;
82850;SDS011;72609;45.768;4.884;2024-03-08T06:47:17;10.07;;;5.80;;
82850;SDS011;72609;45.768;4.884;2024-03-08T06:49:43;13.80;;;7.25;;
82850;SDS011;72609;45.768;4.884;2024-03-08T06:52:09;16.55;;;7.72;;
82850;SDS011;72609;45.768;4.884;2024-03-08T06:54:35;13.88;;;5.75;;
82850;SDS011;72609;45.768;4.884;2024-03-08T06:57:05;8.23;;;5.53;;
82850;SDS011;72609;45.768;4.884;2024-03-08T06:59:31;9.38;;;5.75;;
82850;SDS011;72609;45.768;4.884;2024-03-08T07:01:57;14.77;;;6.00;;
82850;SDS011;72609;45.768;4.884;2024-03-08T07:04:24;10.80;;;6.15;;
82850;SDS011;72609;45.768;4.884;2024-03-08T07:06:53;10.57;;;5.38;;
82850;SDS011;72609;45.768;4.884;2024-03-08T07:09:19;8.43;;;5.20;;
82850;SDS011;72609;45.768;4.884;2024-03-08T07:11:45;10.43;;;6.00;;
82850;SDS011;72609;45.768;4.884;2024-03-08T07:14:11;8.20;;;5.57;;
82850;SDS011;72609;45.768;4.884;2024-03-08T07:16:37;8.60;;;5.95;;
82850;SDS011;72609;45.768;4.884;2024-03-08T07:19:04;9.65;;;6.10;;
82850;SDS011;72609;45.768;4.884;2024-03-08T07:21:30;9.38;;;5.90;;
82850;SDS011;72609;45.768;4.884;2024-03-08T07:23:56;7.28;;;4.93;;
82850;SDS011;72609;45.768;4.884;2024-03-08T07:26:24;7.72;;;5.45;;
82850;SDS011;72609;45.768;4.884;2024-03-08T07:28:50;10.50;;;5.90;;
82850;SDS011;72609;45.768;4.884;2024-03-08T07:31:16;8.38;;;6.10;;
82850;SDS011;72609;45.768;4.884;2024-03-08T07:33:41;11.38;;;6.97;;
82850;SDS011;72609;45.768;4.884;2024-03-08T07:36:07;13.02;;;7.72;;
82850;SDS011;72609;45.768;4.884;2024-03-08T07:38:33;9.93;;;6.05;;
82850;SDS011;72609;45.768;4.884;2024-03-08T07:40:59;13.15;;;7.18;;
82850;SDS011;72609;45.768;4.884;2024-03-08T07:43:25;9.27;;;6.28;;
82850;SDS011;72609;45.768;4.884;2024-03-08T07:45:52;12.75;;;7.55;;
82850;SDS011;72609;45.768;4.884;2024-03-08T07:48:20;13.32;;;6.88;;
82850;SDS011;72609;45.768;4.884;2024-03-08T07:50:46;12.90;;;7.25;;
82850;SDS011;72609;45.768;4.884;2024-03-08T07:53:11;11.93;;;7.75;;
82850;SDS011;72609;45.768;4.884;2024-03-08T07:55:37;8.50;;;5.80;;
82850;SDS011;72609;45.768;4.884;2024-03-08T07:58:04;10.48;;;6.32;;
82850;SDS011;72609;45.768;4.884;2024-03-08T08:00:31;10.70;;;6.95;;
82850;SDS011;72609;45.768;4.884;2024-03-08T08:02:56;11.02;;;6.20;;
82850;SDS011;72609;45.768;4.884;2024-03-08T08:05:22;15.18;;;7.95;;
82850;SDS011;72609;45.768;4.884;2024-03-08T08:07:48;12.02;;;6.57;;
82850;SDS011;72609;45.768;4.884;2024-03-08T08:10:14;11.27;;;7.03;;
82850;SDS011;72609;45.768;4.884;2024-03-08T08:12:46;11.90;;;7.28;;
82850;SDS011;72609;45.768;4.884;2024-03-08T08:15:13;12.38;;;7.00;;
82850;SDS011;72609;45.768;4.884;2024-03-08T08:17:40;9.98;;;7.15;;
82850;SDS011;72609;45.768;4.884;2024-03-08T08:20:07;12.43;;;6.78;;
82850;SDS011;72609;45.768;4.884;2024-03-08T08:22:34;13.07;;;8.15;;
82850;SDS011;72609;45.768;4.884;2024-03-08T08:24:59;10.43;;;5.97;;
82850;SDS011;72609;45.768;4.884;2024-03-08T08:27:25;8.70;;;5.80;;
82850;SDS011;72609;45.768;4.884;2024-03-08T08:29:51;9.80;;;6.03;;
82850;SDS011;72609;45.768;4.884;2024-03-08T08:32:17;10.57;;;6.88;;
82850;SDS011;72609;45.768;4.884;2024-03-08T08:34:43;10.65;;;6.13;;
82850;SDS011;72609;45.768;4.884;2024-03-08T08:37:09;9.95;;;5.63;;
82850;SDS011;72609;45.768;4.884;2024-03-08T08:39:35;9.70;;;4.10;;
82850;SDS011;72609;45.768;4.884;2024-03-08T08:42:01;10.35;;;4.22;;
82850;SDS011;72609;45.768;4.884;2024-03-08T08:44:28;8.02;;;4.82;;
82850;SDS011;72609;45.768;4.884;2024-03-08T08:46:56;8.27;;;4.55;;
82850;SDS011;72609;45.768;4.884;2024-03-08T08:49:22;7.05;;;4.57;;
82850;SDS011;72609;45.768;4.884;2024-03-08T08:51:52;10.60;;;5.70;;
82850;SDS011;72609;45.768;4.884;2024-03-08T08:54:17;8.40;;;4.72;;
82850;SDS011;72609;45.768;4.884;2024-03-08T08:56:43;7.95;;;5.35;;
82850;SDS011;72609;45.768;4.884;2024-03-08T08:59:09;12.85;;;5.80;;
82850;SDS011;72609;45.768;4.884;2024-03-08T09:01:38;8.82;;;5.43;;
82850;SDS011;72609;45.768;4.884;2024-03-08T09:04:04;12.43;;;6.50;;
82850;SDS011;72609;45.768;4.884;2024-03-08T09:06:31;7.13;;;5.10;;
82850;SDS011;72609;45.768;4.884;2024-03-08T09:08:56;11.52;;;6.53;;
82850;SDS011;72609;45.768;4.884;2024-03-08T09:11:22;9.73;;;5.82;;
82850;SDS011;72609;45.768;4.884;2024-03-08T09:13:50;11.45;;;6.57;;
82850;SDS011;72609;45.768;4.884;2024-03-08T09:16:15;10.18;;;5.95;;
82850;SDS011;72609;45.768;4.884;2024-03-08T09:18:41;13.45;;;6.13;;
82850;SDS011;72609;45.768;4.884;2024-03-08T09:21:07;9.77;;;5.50;;
82850;SDS011;72609;45.768;4.884;2024-03-08T09:23:34;8.32;;;5.35;;
82850;SDS011;72609;45.768;4.884;2024-03-08T09:26:01;8.63;;;4.57;;
82850;SDS011;72609;45.768;4.884;2024-03-08T09:28:28;10.65;;;5.78;;
82850;SDS011;72609;45.768;4.884;2024-03-08T09:30:54;10.00;;;6.65;;
82850;SDS011;72609;45.768;4.884;2024-03-08T09:33:20;8.25;;;5.82;;
82850;SDS011;72609;45.768;4.884;2024-03-08T09:35:46;7.40;;;5.00;;
82850;SDS011;72609;45.768;4.884;2024-03-08T09:38:13;11.32;;;6.78;;
82850;SDS011;72609;45.768;4.884;2024-03-08T09:40:42;9.20;;;6.03;;
82850;SDS011;72609;45.768;4.884;2024-03-08T09:43:09;6.60;;;4.53;;
82850;SDS011;72609;45.768;4.884;2024-03-08T09:45:36;7.70;;;4.22;;
82850;SDS011;72609;45.768;4.884;2024-03-08T09:48:06;5.35;;;3.90;;
82850;SDS011;72609;45.768;4.884;2024-03-08T09:50:37;8.07;;;4.80;;
82850;SDS011;72609;45.768;4.884;2024-03-08T09:53:04;8.05;;;5.07;;
82850;SDS011;72609;45.768;4.884;2024-03-08T09:55:33;9.85;;;4.90;;
82850;SDS011;72609;45.768;4.884;2024-03-08T09:58:01;8.32;;;4.47;;
82850;SDS011;72609;45.768;4.884;2024-03-08T10:00:48;9.10;;;6.20;;
82850;SDS011;72609;45.768;4.884;2024-03-08T10:03:14;10.88;;;5.93;;
82850;SDS011;72609;45.768;4.884;2024-03-08T10:05:43;12.35;;;4.63;;
82850;SDS011;72609;45.768;4.884;2024-03-08T10:08:11;6.32;;;4.40;;
82850;SDS011;72609;45.768;4.884;2024-03-08T10:13:07;7.80;;;4.85;;
82850;SDS011;72609;45.768;4.884;2024-03-08T10:15:34;5.90;;;4.22;;
82850;SDS011;72609;45.768;4.884;2024-03-08T10:18:00;9.15;;;3.95;;
82850;SDS011;72609;45.768;4.884;2024-03-08T10:20:30;8.10;;;4.47;;
82850;SDS011;72609;45.768;4.884;2024-03-08T10:23:02;5.85;;;3.95;;
82850;SDS011;72609;45.768;4.884;2024-03-08T10:25:30;7.57;;;3.85;;
82850;SDS011;72609;45.768;4.884;2024-03-08T10:27:59;7.72;;;4.60;;
82850;SDS011;72609;45.768;4.884;2024-03-08T10:30:25;7.25;;;4.57;;
82850;SDS011;72609;45.768;4.884;2024-03-08T10:32:51;7.88;;;5.05;;
82850;SDS011;72609;45.768;4.884;2024-03-08T10:35:16;7.00;;;4.30;;
82850;SDS011;72609;45.768;4.884;2024-03-08T10:37:49;6.10;;;4.10;;
82850;SDS011;72609;45.768;4.884;2024-03-08T10:40:27;9.32;;;3.65;;
82850;SDS011;72609;45.768;4.884;2024-03-08T10:42:57;6.60;;;4.25;;
82850;SDS011;72609;45.768;4.884;2024-03-08T10:50:56;12.13;;;4.15;;
82850;SDS011;72609;45.768;4.884;2024-03-08T10:53:23;10.05;;;3.65;;
82850;SDS011;72609;45.768;4.884;2024-03-08T10:55:52;19.38;;;4.38;;
82850;SDS011;72609;45.768;4.884;2024-03-08T10:58:22;7.40;;;4.00;;
82850;SDS011;72609;45.768;4.884;2024-03-08T11:00:51;7.80;;;3.72;;
82850;SDS011;72609;45.768;4.884;2024-03-08T11:08:48;6.13;;;3.30;;
82850;SDS011;72609;45.768;4.884;2024-03-08T11:13:57;7.70;;;3.83;;
82850;SDS011;72609;45.768;4.884;2024-03-08T11:21:36;4.88;;;3.13;;
82850;SDS011;72609;45.768;4.884;2024-03-08T11:24:09;3.83;;;2.45;;
82850;SDS011;72609;45.768;4.884;2024-03-08T11:32:08;5.78;;;2.92;;
82850;SDS011;72609;45.768;4.884;2024-03-08T11:34:43;4.22;;;1.60;;
82850;SDS011;72609;45.768;4.884;2024-03-08T11:37:12;5.72;;;1.55;;
82850;SDS011;72609;45.768;4.884;2024-03-08T11:39:40;2.92;;;1.67;;
82850;SDS011;72609;45.768;4.884;2024-03-08T11:42:11;3.15;;;1.30;;
82850;SDS011;72609;45.768;4.884;2024-03-08T11:44:36;2.03;;;1.65;;
82850;SDS011;72609;45.768;4.884;2024-03-08T11:47:08;2.65;;;1.35;;
82850;SDS011;72609;45.768;4.884;2024-03-08T11:49:35;3.60;;;2.30;;
82850;SDS011;72609;45.768;4.884;2024-03-08T11:52:01;5.65;;;1.33;;
82850;SDS011;72609;45.768;4.884;2024-03-08T11:54:28;2.53;;;1.17;;
82850;SDS011;72609;45.768;4.884;2024-03-08T11:56:55;3.88;;;1.52;;
82850;SDS011;72609;45.768;4.884;2024-03-08T11:59:26;5.10;;;1.55;;
82850;SDS011;72609;45.768;4.884;2024-03-08T12:01:59;1.98;;;0.98;;
82850;SDS011;72609;45.768;4.884;2024-03-08T12:04:27;3.40;;;1.10;;
82850;SDS011;72609;45.768;4.884;2024-03-08T12:06:52;2.50;;;1.30;;
82850;SDS011;72609;45.768;4.884;2024-03-08T12:09:18;3.42;;;1.98;;
82850;SDS011;72609;45.768;4.884;2024-03-08T12:11:47;7.22;;;2.38;;
82850;SDS011;72609;45.768;4.884;2024-03-08T12:14:13;4.00;;;2.75;;
82850;SDS011;72609;45.768;4.884;2024-03-08T12:16:38;4.00;;;2.15;;
82850;SDS011;72609;45.768;4.884;2024-03-08T12:19:04;5.07;;;2.35;;
82850;SDS011;72609;45.768;4.884;2024-03-08T12:21:31;6.88;;;2.75;;
82850;SDS011;72609;45.768;4.884;2024-03-08T12:24:07;4.88;;;3.50;;
82850;SDS011;72609;45.768;4.884;2024-03-08T12:26:37;6.05;;;3.05;;
82850;SDS011;72609;45.768;4.884;2024-03-08T12:31:59;5.97;;;3.00;;
82850;SDS011;72609;45.768;4.884;2024-03-08T12:34:27;5.57;;;3.78;;
82850;SDS011;72609;45.768;4.884;2024-03-08T12:36:53;7.55;;;3.10;;
82850;SDS011;72609;45.768;4.884;2024-03-08T12:39:20;11.90;;;4.25;;
82850;SDS011;72609;45.768;4.884;2024-03-08T12:41:47;5.25;;;3.78;;
82850;SDS011;72609;45.768;4.884;2024-03-08T12:44:19;4.95;;;3.42;;
82850;SDS011;72609;45.768;4.884;2024-03-08T12:46:48;8.35;;;2.50;;
82850;SDS011;72609;45.768;4.884;2024-03-08T12:49:14;3.65;;;1.73;;
82850;SDS011;72609;45.768;4.884;2024-03-08T12:51:43;4.22;;;2.40;;
82850;SDS011;72609;45.768;4.884;2024-03-08T12:54:10;4.13;;;2.10;;
82850;SDS011;72609;45.768;4.884;2024-03-08T12:56:36;3.97;;;1.80;;
82850;SDS011;72609;45.768;4.884;2024-03-08T12:59:05;5.70;;;3.65;;
82850;SDS011;72609;45.768;4.884;2024-03-08T13:01:33;7.68;;;3.25;;
82850;SDS011;72609;45.768;4.884;2024-03-08T13:03:59;6.28;;;2.58;;
82850;SDS011;72609;45.768;4.884;2024-03-08T13:06:28;5.63;;;3.50;;
82850;SDS011;72609;45.768;4.884;2024-03-08T13:08:55;4.47;;;3.03;;
82850;SDS011;72609;45.768;4.884;2024-03-08T13:11:22;6.57;;;3.88;;
82850;SDS011;72609;45.768;4.884;2024-03-08T13:13:48;8.23;;;4.00;;
82850;SDS011;72609;45.768;4.884;2024-03-08T13:16:14;7.03;;;4.10;;
82850;SDS011;72609;45.768;4.884;2024-03-08T13:18:42;5.55;;;3.20;;
82850;SDS011;72609;45.768;4.884;2024-03-08T13:21:07;11.38;;;4.60;;
82850;SDS011;72609;45.768;4.884;2024-03-08T13:23:34;9.77;;;3.75;;
82850;SDS011;72609;45.768;4.884;2024-03-08T13:26:10;7.03;;;4.65;;
82850;SDS011;72609;45.768;4.884;2024-03-08T13:28:40;10.27;;;4.00;;
82850;SDS011;72609;45.768;4.884;2024-03-08T13:31:19;7.80;;;5.00;;
82850;SDS011;72609;45.768;4.884;2024-03-08T13:33:45;7.22;;;4.57;;
82850;SDS011;72609;45.768;4.884;2024-03-08T13:38:45;9.57;;;4.47;;
82850;SDS011;72609;45.768;4.884;2024-03-08T13:41:12;8.38;;;5.00;;
82850;SDS011;72609;45.768;4.884;2024-03-08T13:43:40;13.95;;;4.45;;
82850;SDS011;72609;45.768;4.884;2024-03-08T13:46:06;6.72;;;3.85;;
82850;SDS011;72609;45.768;4.884;2024-03-08T13:48:32;5.07;;;3.25;;
82850;SDS011;72609;45.768;4.884;2024-03-08T13:50:58;4.35;;;2.10;;
82850;SDS011;72609;45.768;4.884;2024-03-08T13:53:25;7.03;;;2.40;;
82850;SDS011;72609;45.768;4.884;2024-03-08T13:55:51;3.88;;;1.55;;
82850;SDS011;72609;45.768;4.884;2024-03-08T13:58:16;3.70;;;2.58;;
82850;SDS011;72609;45.768;4.884;2024-03-08T14:00:42;4.85;;;2.03;;
82850;SDS011;72609;45.768;4.884;2024-03-08T14:03:11;2.72;;;1.60;;
82850;SDS011;72609;45.768;4.884;2024-03-08T14:05:40;2.95;;;0.98;;
82850;SDS011;72609;45.768;4.884;2024-03-08T14:08:07;3.08;;;1.40;;
82850;SDS011;72609;45.768;4.884;2024-03-08T14:10:33;2.05;;;1.15;;
82850;SDS011;72609;45.768;4.884;2024-03-08T14:13:00;4.63;;;1.73;;
82850;SDS011;72609;45.768;4.884;2024-03-08T14:15:27;3.97;;;1.25;;
82850;SDS011;72609;45.768;4.884;2024-03-08T14:17:54;4.25;;;1.25;;
82850;SDS011;72609;45.768;4.884;2024-03-08T14:20:20;12.50;;;1.42;;
82850;SDS011;72609;45.768;4.884;2024-03-08T14:22:50;4.05;;;1.25;;
82850;SDS011;72609;45.768;4.884;2024-03-08T14:25:17;2.00;;;1.10;;
82850;SDS011;72609;45.768;4.884;2024-03-08T14:27:43;3.33;;;1.08;;
82850;SDS011;72609;45.768;4.884;2024-03-08T14:30:10;1.80;;;1.13;;
82850;SDS011;72609;45.768;4.884;2024-03-08T14:32:36;8.07;;;1.20;;
82850;SDS011;72609;45.768;4.884;2024-03-08T14:35:05;8.13;;;1.30;;
82850;SDS011;72609;45.768;4.884;2024-03-08T14:37:31;1.33;;;1.20;;
82850;SDS011;72609;45.768;4.884;2024-03-08T14:39:56;3.25;;;1.83;;
82850;SDS011;72609;45.768;4.884;2024-03-08T14:42:22;5.65;;;1.33;;
82850;SDS011;72609;45.768;4.884;2024-03-08T14:44:48;2.72;;;1.15;;
82850;SDS011;72609;45.768;4.884;2024-03-08T14:47:16;4.43;;;1.20;;
82850;SDS011;72609;45.768;4.884;2024-03-08T14:49:42;4.55;;;1.40;;
82850;SDS011;72609;45.768;4.884;2024-03-08T14:52:08;5.63;;;1.40;;
82850;SDS011;72609;45.768;4.884;2024-03-08T14:54:52;1.52;;;0.98;;
82850;SDS011;72609;45.768;4.884;2024-03-08T14:57:18;2.25;;;0.50;;
82850;SDS011;72609;45.768;4.884;2024-03-08T14:59:44;1.40;;;0.77;;
82850;SDS011;72609;45.768;4.884;2024-03-08T15:02:10;2.10;;;1.40;;
82850;SDS011;72609;45.768;4.884;2024-03-08T15:04:36;1.63;;;1.40;;
82850;SDS011;72609;45.768;4.884;2024-03-08T15:07:02;2.78;;;1.15;;
82850;SDS011;72609;45.768;4.884;2024-03-08T15:09:30;2.25;;;1.08;;
82850;SDS011;72609;45.768;4.884;2024-03-08T15:12:04;3.95;;;1.30;;
82850;SDS011;72609;45.768;4.884;2024-03-08T15:14:31;1.30;;;1.00;;
82850;SDS011;72609;45.768;4.884;2024-03-08T15:16:58;3.63;;;1.38;;
82850;SDS011;72609;45.768;4.884;2024-03-08T15:19:23;3.08;;;0.98;;
82850;SDS011;72609;45.768;4.884;2024-03-08T15:21:50;4.70;;;1.77;;
82850;SDS011;72609;45.768;4.884;2024-03-08T15:24:20;4.20;;;1.50;;